createdAt,value
2022-12-27T00:00:15.200Z,98214.81
2022-12-27T00:02:44.193Z,98220.63
2022-12-27T00:05:13.290Z,98225.28
2022-12-27T00:07:41.941Z,98227.34
2022-12-27T00:10:11.915Z,98236.28
2022-12-27T00:12:40.653Z,98241.69
2022-12-27T00:15:10.316Z,98256.47
2022-12-27T00:17:40.158Z,98255.81
2022-12-27T00:20:11.706Z,98257.25
2022-12-27T00:22:41.329Z,98269.53
2022-12-27T00:25:11.532Z,98271.41
2022-12-27T00:27:40.080Z,98278.75
2022-12-27T00:30:11.007Z,98300.44
2022-12-27T00:32:42.349Z,98303.69
2022-12-27T00:35:11.297Z,98314.38
2022-12-27T00:37:39.811Z,98326.69
2022-12-27T00:40:10.339Z,98334.28
2022-12-27T00:42:38.871Z,98355.50
2022-12-27T00:45:08.919Z,98355.88
2022-12-27T00:47:37.431Z,98376.03
2022-12-27T00:50:08.320Z,98377.72
2022-12-27T00:52:36.842Z,98373.66
2022-12-27T00:55:06.595Z,98387.44
2022-12-27T00:57:35.436Z,98399.41
2022-12-27T01:00:10.175Z,98410.81
2022-12-27T01:02:39.474Z,98396.00
2022-12-27T01:05:10.367Z,98414.66
2022-12-27T01:07:38.973Z,98401.78
2022-12-27T01:10:08.432Z,98413.25
2022-12-27T01:12:37.874Z,98400.88
2022-12-27T01:15:09.234Z,98413.56
2022-12-27T01:17:37.955Z,98409.84
2022-12-27T01:20:09.784Z,98421.19
2022-12-27T01:22:38.537Z,98433.59
2022-12-27T01:25:08.470Z,98432.28
2022-12-27T01:27:37.088Z,98436.84
2022-12-27T01:30:07.255Z,98446.81
2022-12-27T01:32:36.572Z,98441.16
2022-12-27T01:35:09.038Z,98453.59
2022-12-27T01:37:37.686Z,98454.94
2022-12-27T01:40:08.167Z,98466.50
2022-12-27T01:42:55.495Z,98468.41
2022-12-27T01:45:26.072Z,98472.19
2022-12-27T01:48:01.909Z,98490.22
2022-12-27T01:50:37.745Z,98487.00
2022-12-27T01:53:14.344Z,98489.97
2022-12-27T01:55:49.224Z,98487.78
2022-12-27T01:58:25.248Z,98492.38
2022-12-27T02:00:54.616Z,98499.09
2022-12-27T02:03:29.994Z,98507.44
2022-12-27T02:06:03.427Z,98517.41
2022-12-27T02:08:43.171Z,98513.59
2022-12-27T02:11:14.681Z,98520.31
2022-12-27T02:13:47.236Z,98518.72
2022-12-27T02:16:20.435Z,98538.63
2022-12-27T02:18:49.090Z,98536.16
2022-12-27T02:21:51.969Z,98538.34
2022-12-27T02:25:07.497Z,98549.09
2022-12-27T02:28:02.765Z,98557.09
2022-12-27T02:30:35.685Z,98561.44
2022-12-27T02:33:12.459Z,98560.06
2022-12-27T02:35:46.167Z,98570.31
2022-12-27T02:38:21.622Z,98577.31
2022-12-27T02:41:10.106Z,98583.16
2022-12-27T02:43:56.147Z,98584.22
2022-12-27T02:46:47.299Z,98590.13
2022-12-27T02:49:45.614Z,98598.16
2022-12-27T02:52:51.804Z,98600.56
2022-12-27T02:55:42.243Z,98608.38
2022-12-27T02:58:44.923Z,98609.16
2022-12-27T03:01:49.117Z,98616.69
2022-12-27T03:04:42.273Z,98618.25
2022-12-27T03:07:27.512Z,98624.13
2022-12-27T03:10:35.128Z,98628.13
2022-12-27T03:13:37.251Z,98631.06
2022-12-27T03:16:19.352Z,98628.63
2022-12-27T03:19:39.464Z,98638.00
2022-12-27T03:22:37.709Z,98632.88
2022-12-27T03:25:25.813Z,98636.34
2022-12-27T03:28:12.724Z,98646.78
2022-12-27T03:31:00.906Z,98657.13
2022-12-27T03:33:33.369Z,98658.16
2022-12-27T03:36:28.951Z,98662.78
2022-12-27T03:39:10.058Z,98667.06
2022-12-27T03:42:17.308Z,98671.09
2022-12-27T03:44:46.058Z,98672.94
2022-12-27T03:47:24.504Z,98676.63
2022-12-27T03:50:05.756Z,98679.03
2022-12-27T03:52:42.888Z,98674.09
2022-12-27T03:55:12.848Z,98682.19
2022-12-27T03:57:41.898Z,98688.78
2022-12-27T04:00:12.813Z,98698.50
2022-12-27T04:02:45.285Z,98697.66
2022-12-27T04:05:13.996Z,98701.34
2022-12-27T04:08:01.272Z,98717.03
2022-12-27T04:10:47.680Z,98720.41
2022-12-27T04:13:33.849Z,98718.66
2022-12-27T04:16:20.183Z,98727.28
2022-12-27T04:19:06.571Z,98728.88
2022-12-27T04:21:52.691Z,98726.69
2022-12-27T04:24:42.590Z,98735.34
2022-12-27T04:27:28.929Z,98732.03
2022-12-27T04:30:15.114Z,98735.22
2022-12-27T04:33:01.176Z,98745.41
2022-12-27T04:35:29.742Z,98742.22
2022-12-27T04:37:58.204Z,98735.97
2022-12-27T04:40:45.841Z,98738.41
2022-12-27T04:43:31.924Z,98734.34
2022-12-27T04:46:20.438Z,98735.81
2022-12-27T04:49:09.391Z,98744.44
2022-12-27T04:52:00.966Z,98746.38
2022-12-27T04:54:47.366Z,98747.34
2022-12-27T04:57:17.597Z,98762.97
2022-12-27T05:00:03.624Z,98766.19
2022-12-27T05:02:32.778Z,98764.13
2022-12-27T05:05:01.606Z,98773.09
2022-12-27T05:07:48.058Z,98778.47
2022-12-27T05:10:34.078Z,98780.69
2022-12-27T05:13:23.033Z,98770.13
2022-12-27T05:15:51.567Z,98771.50
2022-12-27T05:18:20.100Z,98782.34
2022-12-27T05:20:48.878Z,98776.50
2022-12-27T05:23:34.922Z,98776.72
2022-12-27T05:26:03.426Z,98784.84
2022-12-27T05:28:33.280Z,98783.69
2022-12-27T05:31:03.567Z,98783.94
2022-12-27T05:33:33.164Z,98788.25
2022-12-27T05:36:01.833Z,98786.50
2022-12-27T05:38:30.307Z,98787.91
2022-12-27T05:41:00.716Z,98799.75
2022-12-27T05:43:29.839Z,98803.59
2022-12-27T05:46:06.156Z,98797.94
2022-12-27T05:48:35.697Z,98804.72
2022-12-27T05:51:09.117Z,98799.81
2022-12-27T05:53:38.124Z,98804.75
2022-12-27T05:56:07.975Z,98803.56
2022-12-27T05:58:36.540Z,98804.50
2022-12-27T06:01:11.491Z,98802.81
2022-12-27T06:03:40.406Z,98803.31
2022-12-27T06:06:10.489Z,98807.78
2022-12-27T06:08:40.554Z,98806.00
2022-12-27T06:11:11.834Z,98811.97
2022-12-27T06:13:42.798Z,98817.22
2022-12-27T06:16:14.007Z,98816.66
2022-12-27T06:18:44.327Z,98830.38
2022-12-27T06:21:15.294Z,98833.38
2022-12-27T06:23:46.426Z,98834.91
2022-12-27T06:26:19.430Z,98835.72
2022-12-27T06:28:49.528Z,98834.56
2022-12-27T06:31:20.965Z,98842.13
2022-12-27T06:33:51.818Z,98834.88
2022-12-27T06:36:23.726Z,98842.31
2022-12-27T06:38:52.315Z,98849.66
2022-12-27T06:41:20.965Z,98855.78
2022-12-27T06:43:54.038Z,98865.81
2022-12-27T06:46:25.392Z,98859.84
2022-12-27T06:48:54.139Z,98873.69
2022-12-27T06:51:22.888Z,98874.63
2022-12-27T06:53:51.550Z,98874.16
2022-12-27T06:56:22.339Z,98875.53
2022-12-27T06:58:52.797Z,98873.22
2022-12-27T07:01:25.679Z,98878.22
2022-12-27T07:03:56.500Z,98873.88
2022-12-27T07:06:27.760Z,98879.03
2022-12-27T07:08:57.773Z,98881.03
2022-12-27T07:11:27.222Z,98880.78
2022-12-27T07:14:03.200Z,98882.53
2022-12-27T07:16:33.239Z,98885.69
2022-12-27T07:19:02.021Z,98887.25
2022-12-27T07:21:31.643Z,98884.09
2022-12-27T07:24:00.637Z,98897.28
2022-12-27T07:26:31.667Z,98892.53
2022-12-27T07:29:02.200Z,98894.75
2022-12-27T07:31:34.606Z,98896.38
2022-12-27T07:34:05.306Z,98906.63
2022-12-27T07:36:37.859Z,98903.59
2022-12-27T07:39:08.441Z,98901.75
2022-12-27T07:41:38.503Z,98903.84
2022-12-27T07:44:09.175Z,98901.50
2022-12-27T07:46:40.053Z,98899.41
2022-12-27T07:49:17.386Z,98899.84
2022-12-27T07:51:46.362Z,98900.66
2022-12-27T07:54:14.886Z,98909.94
2022-12-27T07:56:43.572Z,98907.94
2022-12-27T07:59:14.150Z,98911.16
2022-12-27T08:01:58.067Z,98908.09
2022-12-27T08:04:26.754Z,98907.25
2022-12-27T08:07:01.649Z,98906.88
2022-12-27T08:09:35.039Z,98911.53
2022-12-27T08:12:03.710Z,98907.88
2022-12-27T08:14:32.624Z,98917.03
2022-12-27T08:17:08.424Z,98922.00
2022-12-27T08:19:37.081Z,98925.34
2022-12-27T08:22:06.254Z,98922.53
2022-12-27T08:24:35.028Z,98922.81
2022-12-27T08:27:03.722Z,98920.31
2022-12-27T08:29:32.193Z,98921.38
2022-12-27T08:32:02.356Z,98921.63
2022-12-27T08:34:31.024Z,98926.09
2022-12-27T08:36:59.665Z,98924.22
2022-12-27T08:39:30.014Z,98917.94
2022-12-27T08:41:58.967Z,98925.59
2022-12-27T08:44:28.215Z,98932.66
2022-12-27T08:46:57.146Z,98939.72
2022-12-27T08:49:27.377Z,98941.66
2022-12-27T08:51:56.105Z,98947.03
2022-12-27T08:54:25.039Z,98955.63
2022-12-27T08:56:55.901Z,98950.72
2022-12-27T08:59:27.043Z,98946.03
2022-12-27T09:01:55.780Z,98943.06
2022-12-27T09:04:26.226Z,98936.47
2022-12-27T09:06:55.060Z,98940.53
2022-12-27T09:09:23.815Z,98939.19
2022-12-27T09:11:52.550Z,98939.59
2022-12-27T09:14:21.463Z,98933.31
2022-12-27T09:16:51.311Z,98935.31
2022-12-27T09:19:19.946Z,98935.13
2022-12-27T09:21:49.919Z,98938.91
2022-12-27T09:24:18.548Z,98935.50
2022-12-27T09:26:47.151Z,98937.72
2022-12-27T09:29:15.958Z,98941.06
2022-12-27T09:31:44.802Z,98942.78
2022-12-27T09:34:13.479Z,98947.09
2022-12-27T09:36:43.396Z,98943.91
2022-12-27T09:39:13.844Z,98941.69
2022-12-27T09:44:53.603Z,98942.38
2022-12-27T09:47:29.240Z,98940.25
2022-12-27T09:50:04.284Z,98937.63
2022-12-27T09:52:40.820Z,98929.97
2022-12-27T09:55:20.578Z,98931.63
2022-12-27T09:57:53.403Z,98930.84
2022-12-27T10:00:34.186Z,98925.53
2022-12-27T10:03:06.983Z,98933.13
2022-12-27T10:05:39.470Z,98927.50
2022-12-27T10:08:30.129Z,98921.41
2022-12-27T10:11:32.675Z,98916.88
2022-12-27T10:14:17.463Z,98919.06
2022-12-27T10:16:59.455Z,98910.41
2022-12-27T10:19:41.686Z,98909.09
2022-12-27T10:22:26.872Z,98912.59
2022-12-27T10:25:01.226Z,98905.91
2022-12-27T10:27:32.588Z,98912.41
2022-12-27T10:30:04.126Z,98906.50
2022-12-27T10:32:32.717Z,98905.13
2022-12-27T10:35:05.322Z,98911.94
2022-12-27T10:37:33.971Z,98911.66
2022-12-27T10:40:12.512Z,98909.25
2022-12-27T10:42:55.440Z,98897.66
2022-12-27T10:45:32.381Z,98900.09
2022-12-27T10:48:17.712Z,98895.81
2022-12-27T10:50:52.439Z,98898.25
2022-12-27T10:53:36.227Z,98889.84
2022-12-27T10:56:15.036Z,98901.72
2022-12-27T10:58:54.740Z,98906.06
2022-12-27T11:01:28.593Z,98894.75
2022-12-27T11:04:20.779Z,98888.53
2022-12-27T11:06:52.936Z,98884.47
2022-12-27T11:09:31.822Z,98876.34
2022-12-27T11:12:21.690Z,98883.38
2022-12-27T11:15:01.409Z,98877.72
2022-12-27T11:17:44.365Z,98875.56
2022-12-27T11:20:24.780Z,98880.41
2022-12-27T11:22:58.808Z,98873.41
2022-12-27T11:25:29.164Z,98874.47
2022-12-27T11:28:05.636Z,98869.59
2022-12-27T11:30:41.172Z,98865.75
2022-12-27T11:33:25.192Z,98876.84
2022-12-27T11:35:59.999Z,98878.22
2022-12-27T11:38:32.461Z,98868.72
2022-12-27T11:41:09.098Z,98861.41
2022-12-27T11:43:48.792Z,98861.06
2022-12-27T11:46:29.051Z,98852.38
2022-12-27T11:49:00.123Z,98838.72
2022-12-27T11:52:08.870Z,98845.25
2022-12-27T11:55:25.338Z,98845.53
2022-12-27T11:58:39.773Z,98844.47
2022-12-27T12:01:37.841Z,98835.88
2022-12-27T12:04:52.379Z,98849.88
2022-12-27T12:07:48.298Z,98845.16
2022-12-27T12:10:33.739Z,98840.81
2022-12-27T12:13:39.217Z,98843.41
2022-12-27T12:17:01.155Z,98846.66
2022-12-27T12:19:54.587Z,98844.56
2022-12-27T12:22:45.912Z,98842.50
2022-12-27T12:26:01.298Z,98834.25
2022-12-27T12:29:10.682Z,98827.63
2022-12-27T12:32:18.172Z,98840.41
2022-12-27T12:35:33.265Z,98835.66
2022-12-27T12:38:23.099Z,98822.81
2022-12-27T12:41:38.283Z,98828.88
2022-12-27T12:44:57.593Z,98826.31
2022-12-27T12:47:57.368Z,98833.31
2022-12-27T12:50:47.217Z,98824.94
2022-12-27T12:53:39.292Z,98830.94
2022-12-27T12:56:41.937Z,98818.47
2022-12-27T12:59:36.846Z,98826.81
2022-12-27T13:02:47.032Z,98825.13
2022-12-27T13:05:25.116Z,98814.38
2022-12-27T13:08:11.937Z,98808.59
2022-12-27T13:11:14.187Z,98811.81
2022-12-27T13:14:05.694Z,98809.63
2022-12-27T13:16:51.678Z,98809.94
2022-12-27T13:19:51.177Z,98806.06
2022-12-27T13:22:38.868Z,98801.84
2022-12-27T13:25:29.366Z,98802.16
2022-12-27T13:28:22.730Z,98804.81
2022-12-27T13:31:04.554Z,98814.03
2022-12-27T13:33:49.606Z,98814.75
2022-12-27T13:36:35.508Z,98810.06
2022-12-27T13:39:34.083Z,98807.53
2022-12-27T13:42:44.180Z,98811.66
2022-12-27T13:45:38.918Z,98819.25
2022-12-27T13:48:30.831Z,98813.16
2022-12-27T13:51:35.363Z,98806.75
2022-12-27T13:54:49.650Z,98806.03
2022-12-27T13:57:55.073Z,98804.44
2022-12-27T14:00:24.964Z,98801.19
2022-12-27T14:03:28.009Z,98818.59
2022-12-27T14:06:26.891Z,98821.31
2022-12-27T14:09:29.413Z,98826.75
2022-12-27T14:12:41.902Z,98826.81
2022-12-27T14:15:19.735Z,98837.06
2022-12-27T14:18:10.475Z,98835.19
2022-12-27T14:21:03.046Z,98838.97
2022-12-27T14:24:00.311Z,98845.78
2022-12-27T14:27:23.433Z,98849.56
2022-12-27T14:30:41.852Z,98848.53
2022-12-27T14:33:52.897Z,98845.56
2022-12-27T14:37:12.809Z,98843.66
2022-12-27T14:40:34.907Z,98849.31
2022-12-27T14:44:19.325Z,98851.19
2022-12-27T14:47:53.675Z,98854.41
2022-12-27T14:51:19.819Z,98857.59
2022-12-27T14:54:47.627Z,98858.06
2022-12-27T14:57:34.864Z,98861.19
2022-12-27T15:00:18.423Z,98858.41
2022-12-27T15:03:17.130Z,98855.91
2022-12-27T15:06:05.225Z,98871.19
2022-12-27T15:09:07.504Z,98863.34
2022-12-27T15:12:08.387Z,98868.66
2022-12-27T15:15:21.183Z,98866.91
2022-12-27T15:18:13.142Z,98865.47
2022-12-27T15:21:05.668Z,98858.53
2022-12-27T15:23:51.744Z,98860.44
2022-12-27T15:26:35.055Z,98863.88
2022-12-27T15:29:25.506Z,98857.44
2022-12-27T15:32:20.571Z,98861.50
2022-12-27T15:35:21.325Z,98863.09
2022-12-27T15:38:03.798Z,98867.09
2022-12-27T15:40:56.777Z,98871.91
2022-12-27T15:43:49.395Z,98864.31
2022-12-27T15:46:46.534Z,98854.19
2022-12-27T15:49:57.697Z,98860.31
2022-12-27T15:52:43.070Z,98859.81
2022-12-27T15:55:26.790Z,98857.13
2022-12-27T15:58:21.525Z,98854.94
2022-12-27T16:01:27.993Z,98857.84
2022-12-27T16:03:59.673Z,98865.38
2022-12-27T16:06:53.266Z,98867.09
2022-12-27T16:09:38.709Z,98862.72
2022-12-27T16:12:13.228Z,98860.22
2022-12-27T16:14:44.442Z,98860.91
2022-12-27T16:17:35.923Z,98857.00
2022-12-27T16:20:19.413Z,98861.13
2022-12-27T16:22:56.435Z,98872.50
2022-12-27T16:25:33.991Z,98877.03
2022-12-27T16:28:08.791Z,98872.31
2022-12-27T16:30:47.176Z,98875.19
2022-12-27T16:33:37.644Z,98870.97
2022-12-27T16:36:28.790Z,98873.41
2022-12-27T16:39:47.177Z,98853.44
2022-12-27T16:42:21.896Z,98866.47
2022-12-27T16:45:02.657Z,98861.34
2022-12-27T16:48:11.723Z,98870.81
2022-12-27T16:51:01.115Z,98866.69
2022-12-27T16:54:06.922Z,98877.28
2022-12-27T16:56:44.855Z,98870.66
2022-12-27T17:00:02.134Z,98871.56
2022-12-27T17:02:41.969Z,98868.00
2022-12-27T17:05:37.179Z,98872.28
2022-12-27T17:08:18.719Z,98866.44
2022-12-27T17:11:25.697Z,98864.94
2022-12-27T17:14:01.827Z,98865.13
2022-12-27T17:16:42.851Z,98872.28
2022-12-27T17:19:21.729Z,98869.84
2022-12-27T17:21:59.776Z,98875.34
2022-12-27T17:24:30.047Z,98872.91
2022-12-27T17:27:28.202Z,98869.53
2022-12-27T17:30:16.928Z,98869.88
2022-12-27T17:33:10.870Z,98879.56
2022-12-27T17:36:14.432Z,98878.38
2022-12-27T17:39:04.915Z,98878.69
2022-12-27T17:42:09.449Z,98877.63
2022-12-27T17:45:09.255Z,98880.06
2022-12-27T17:48:15.262Z,98878.59
2022-12-27T17:50:45.813Z,98881.88
2022-12-27T17:53:38.078Z,98876.66
2022-12-27T17:56:38.773Z,98875.50
2022-12-27T17:59:12.432Z,98868.66
2022-12-27T18:01:51.264Z,98865.28
2022-12-27T18:04:27.941Z,98867.97
2022-12-27T18:07:01.467Z,98865.44
2022-12-27T18:09:39.696Z,98861.56
2022-12-27T18:12:19.811Z,98858.09
2022-12-27T18:14:59.107Z,98863.72
2022-12-27T18:17:37.232Z,98856.50
2022-12-27T18:20:34.052Z,98854.38
2022-12-27T18:23:19.169Z,98851.22
2022-12-27T18:25:58.450Z,98848.78
2022-12-27T18:28:33.333Z,98850.41
2022-12-27T18:31:13.417Z,98846.28
2022-12-27T18:33:49.969Z,98846.47
2022-12-27T18:36:29.659Z,98836.13
2022-12-27T18:39:03.571Z,98841.44
2022-12-27T18:41:40.742Z,98835.72
2022-12-27T18:44:23.052Z,98826.03
2022-12-27T18:47:00.936Z,98836.44
2022-12-27T18:49:35.366Z,98834.00
2022-12-27T18:52:15.237Z,98828.34
2022-12-27T18:54:44.299Z,98825.06
2022-12-27T18:57:35.263Z,98820.00
2022-12-27T19:00:18.710Z,98814.66
2022-12-27T19:02:47.622Z,98820.53
2022-12-27T19:05:29.085Z,98818.34
2022-12-27T19:08:10.965Z,98815.56
2022-12-27T19:10:48.207Z,98813.81
2022-12-27T19:13:27.121Z,98809.53
2022-12-27T19:15:58.897Z,98809.88
2022-12-27T19:18:32.662Z,98802.09
2022-12-27T19:21:06.833Z,98812.19
2022-12-27T19:23:38.039Z,98809.97
2022-12-27T19:26:25.557Z,98804.03
2022-12-27T19:29:04.217Z,98793.09
2022-12-27T19:31:33.393Z,98794.97
2022-12-27T19:34:09.230Z,98800.47
2022-12-27T19:36:43.480Z,98786.50
2022-12-27T19:39:23.460Z,98783.69
2022-12-27T19:41:53.697Z,98779.28
2022-12-27T19:44:30.284Z,98782.97
2022-12-27T19:46:59.198Z,98787.41
2022-12-27T19:49:44.904Z,98789.63
2022-12-27T19:52:20.243Z,98789.06
2022-12-27T19:54:52.190Z,98785.22
2022-12-27T19:57:24.054Z,98790.94
2022-12-27T19:59:52.825Z,98796.75
2022-12-27T20:02:22.250Z,98794.38
2022-12-27T20:04:51.061Z,98802.41
2022-12-27T20:07:25.315Z,98790.66
2022-12-27T20:09:54.290Z,98794.84
2022-12-27T20:12:22.994Z,98796.13
2022-12-27T20:14:51.671Z,98788.34
2022-12-27T20:17:20.707Z,98792.75
2022-12-27T20:19:51.695Z,98792.88
2022-12-27T20:22:21.780Z,98800.56
2022-12-27T20:24:51.329Z,98806.63
2022-12-27T20:27:23.924Z,98808.59
2022-12-27T20:29:53.257Z,98802.56
2022-12-27T20:32:22.066Z,98801.41
2022-12-27T20:34:50.715Z,98798.69
2022-12-27T20:37:24.568Z,98802.75
2022-12-27T20:39:53.707Z,98799.84
2022-12-27T20:42:23.739Z,98799.06
2022-12-27T20:44:52.421Z,98783.81
2022-12-27T20:47:21.091Z,98791.88
2022-12-27T20:49:49.680Z,98783.03
2022-12-27T20:52:18.496Z,98786.28
2022-12-27T20:54:48.397Z,98784.28
2022-12-27T20:57:17.040Z,98788.69
2022-12-27T20:59:47.848Z,98780.00
2022-12-27T21:02:16.658Z,98790.66
2022-12-27T21:04:45.375Z,98790.34
2022-12-27T21:07:16.138Z,98780.31
2022-12-27T21:09:44.828Z,98775.56
2022-12-27T21:12:15.112Z,98776.38
2022-12-27T21:14:43.785Z,98766.50
2022-12-27T21:17:12.555Z,98771.13
2022-12-27T21:19:41.461Z,98776.00
2022-12-27T21:22:10.365Z,98771.69
2022-12-27T21:24:38.930Z,98765.19
2022-12-27T21:27:07.605Z,98762.03
2022-12-27T21:29:37.755Z,98758.09
2022-12-27T21:32:07.188Z,98761.91
2022-12-27T21:34:36.180Z,98756.78
2022-12-27T21:37:10.008Z,98757.03
2022-12-27T21:39:41.887Z,98758.53
2022-12-27T21:42:10.991Z,98759.72
2022-12-27T21:44:40.931Z,98756.81
2022-12-27T21:47:09.575Z,98755.72
2022-12-27T21:49:40.487Z,98755.53
2022-12-27T21:52:09.311Z,98752.88
2022-12-27T21:54:37.947Z,98750.63
2022-12-27T21:57:06.442Z,98751.56
2022-12-27T21:59:34.953Z,98754.22
2022-12-27T22:02:05.180Z,98745.94
2022-12-27T22:04:33.834Z,98749.88
2022-12-27T22:07:02.639Z,98740.00
2022-12-27T22:09:31.266Z,98736.50
2022-12-27T22:11:59.800Z,98730.22
2022-12-27T22:14:30.585Z,98737.44
2022-12-27T22:17:03.682Z,98735.72
2022-12-27T22:19:33.911Z,98736.13
2022-12-27T22:22:02.467Z,98740.94
2022-12-27T22:24:31.101Z,98750.47
2022-12-27T22:26:59.675Z,98748.03
2022-12-27T22:29:33.214Z,98747.69
2022-12-27T22:32:03.764Z,98739.91
2022-12-27T22:34:38.090Z,98738.88
2022-12-27T22:37:06.771Z,98736.44
2022-12-27T22:39:35.303Z,98734.38
2022-12-27T22:42:03.913Z,98730.28
2022-12-27T22:44:32.518Z,98725.75
2022-12-27T22:49:51.449Z,98723.06
2022-12-27T22:52:19.954Z,98719.81
2022-12-27T22:55:04.400Z,98714.81
2022-12-27T22:57:34.965Z,98710.88
2022-12-27T23:00:04.092Z,98700.88
2022-12-27T23:02:32.719Z,98704.34
2022-12-27T23:05:02.991Z,98695.28
2022-12-27T23:08:04.525Z,98695.41
2022-12-27T23:10:20.283Z,98704.25
2022-12-27T23:12:48.997Z,98702.50
2022-12-27T23:15:17.950Z,98712.97
2022-12-27T23:17:46.562Z,98708.44
2022-12-27T23:20:16.702Z,98697.63
2022-12-27T23:22:45.515Z,98692.63
2022-12-27T23:25:14.270Z,98691.56
2022-12-27T23:27:45.757Z,98678.66
2022-12-27T23:30:16.064Z,98686.22
2022-12-27T23:32:44.902Z,98674.38
2022-12-27T23:35:13.672Z,98677.63
2022-12-27T23:37:43.824Z,98678.78
2022-12-27T23:40:13.589Z,98675.41
2022-12-27T23:42:42.472Z,98670.28
2022-12-27T23:45:12.050Z,98672.84
2022-12-27T23:47:43.506Z,98659.22
2022-12-27T23:50:17.388Z,98659.56
2022-12-27T23:52:50.674Z,98661.78
2022-12-27T23:55:19.506Z,98660.28
2022-12-27T23:57:48.057Z,98662.50
